Time;durP1;ratioP1;P1;durP2;ratioP2;P2;SDS_P1;SDS_P2;PMS_P1;PMS_P2;Temp;Humidity;BMP_temperature;BMP_pressure;BME280_temperature;BME280_humidity;BME280_pressure;Samples;Min_cycle;Max_cycle;Signal;HPM_P1;HPM_P2
2021/12/18 00:01:39;;;;;;;18.92;5.63;;;;;;;6.45;80.21;102605.28;4991072;28;20043;-54
2021/12/18 00:04:05;;;;;;;23.08;6.30;;;;;;;6.45;80.62;102594.97;4984310;28;20109;-55
2021/12/18 00:06:32;;;;;;;19.05;6.70;;;;;;;6.46;80.98;102587.34;4988376;28;20478;-54
2021/12/18 00:08:59;;;;;;;17.55;5.90;;;;;;;6.46;81.00;102591.59;4985184;28;20115;-53
2021/12/18 00:11:27;;;;;;;20.23;5.95;;;;;;;6.47;79.88;102588.19;4987895;28;20050;-54
2021/12/18 00:13:53;;;;;;;17.58;6.50;;;;;;;6.49;79.45;102591.75;4991105;28;20081;-51
2021/12/18 00:16:21;;;;;;;22.17;6.95;;;;;;;6.50;80.12;102585.81;4987505;28;20054;-54
2021/12/18 00:18:50;;;;;;;25.75;6.30;;;;;;;6.51;80.18;102587.56;4989581;28;20128;-55
2021/12/18 00:21:19;;;;;;;20.80;6.25;;;;;;;6.53;80.00;102583.41;4988750;28;20049;-53
2021/12/18 00:23:46;;;;;;;19.65;5.65;;;;;;;6.53;79.58;102578.25;4988998;28;20092;-53
2021/12/18 00:26:12;;;;;;;16.73;5.57;;;;;;;6.52;80.11;102576.50;4990686;28;20506;-53
2021/12/18 00:28:39;;;;;;;19.92;5.90;;;;;;;6.53;80.00;102574.00;4988313;28;20050;-52
2021/12/18 00:31:06;;;;;;;20.58;6.55;;;;;;;6.53;81.30;102575.69;4994687;28;20426;-53
2021/12/18 00:33:32;;;;;;;17.27;5.63;;;;;;;6.52;79.96;102571.34;4984420;28;20093;-54
2021/12/18 00:35:59;;;;;;;20.33;5.63;;;;;;;6.54;80.02;102574.88;4987744;28;20073;-55
2021/12/18 00:38:29;;;;;;;25.33;6.50;;;;;;;6.53;81.24;102573.09;4986699;28;20054;-52
2021/12/18 00:41:34;;;;;;;21.35;6.63;;;;;;;6.52;79.98;102571.34;4987044;28;20478;-53
2021/12/18 00:44:01;;;;;;;16.10;5.35;;;;;;;6.52;81.02;102582.50;5009399;28;20058;-54
2021/12/18 00:46:31;;;;;;;22.00;6.60;;;;;;;6.54;80.63;102577.44;4985338;28;20043;-54
2021/12/18 00:48:57;;;;;;;18.90;5.63;;;;;;;6.53;79.78;102573.09;4986642;28;20054;-54
2021/12/18 00:51:25;;;;;;;19.00;6.85;;;;;;;6.53;81.47;102575.69;4986781;28;20137;-54
2021/12/18 00:53:51;;;;;;;20.13;6.30;;;;;;;6.53;81.42;102573.09;4988489;28;20100;-54
2021/12/18 00:56:19;;;;;;;16.70;5.32;;;;;;;6.52;81.75;102566.19;4989185;28;20157;-52
2021/12/18 00:58:48;;;;;;;19.30;6.20;;;;;;;6.55;80.10;102572.38;4987655;28;20101;-54
2021/12/18 01:01:15;;;;;;;21.30;6.00;;;;;;;6.56;81.45;102569.00;4989462;28;20046;-55
2021/12/18 01:03:42;;;;;;;22.00;5.32;;;;;;;6.57;80.19;102572.47;4989075;28;20050;-51
2021/12/18 01:06:09;;;;;;;16.38;6.30;;;;;;;6.59;79.74;102572.56;4984628;28;20062;-53
2021/12/18 01:08:36;;;;;;;15.85;4.95;;;;;;;6.59;79.65;102573.44;4985113;28;20085;-53
2021/12/18 01:14:22;;;;;;;13.07;5.53;;;;;;;6.58;79.89;102571.66;4983883;28;20483;-54
2021/12/18 01:16:49;;;;;;;19.98;6.32;;;;;;;6.59;81.48;102578.59;4973769;28;20101;-53
2021/12/18 01:24:49;;;;;;;17.75;5.20;;;;;;;6.59;80.90;102582.84;4987417;28;20520;-53
2021/12/18 01:27:16;;;;;;;9.55;4.50;;;;;;;6.62;80.36;102586.47;4989448;28;20046;-55
2021/12/18 01:29:42;;;;;;;12.77;4.60;;;;;;;6.62;81.80;102589.03;4988369;28;20046;-52
2021/12/18 01:32:09;;;;;;;16.25;5.63;;;;;;;6.63;81.32;102585.69;4986332;28;20054;-49
2021/12/18 01:34:36;;;;;;;17.52;5.28;;;;;;;6.64;79.87;102577.16;4987469;28;20054;-55
2021/12/18 01:37:04;;;;;;;10.77;4.05;;;;;;;6.60;81.29;102574.31;4986026;28;20108;-55
2021/12/18 01:39:31;;;;;;;14.05;5.22;;;;;;;6.63;79.94;102575.38;4986783;28;20117;-55
2021/12/18 01:42:27;;;;;;;11.23;4.85;;;;;;;6.60;81.34;102564.91;4985714;28;20105;-54
2021/12/18 01:53:11;;;;;;;9.15;3.90;;;;;;;6.59;80.91;102569.97;4984907;28;20054;-55
2021/12/18 01:55:39;;;;;;;9.00;3.70;;;;;;;6.58;81.09;102569.09;4985106;28;20042;-55
2021/12/18 01:58:07;;;;;;;8.13;3.38;;;;;;;6.54;81.56;102564.56;4987500;28;20116;-53
2021/12/18 02:00:39;;;;;;;6.82;3.55;;;;;;;6.57;82.12;102569.91;4984526;28;20077;-54
2021/12/18 02:03:06;;;;;;;9.35;4.00;;;;;;;6.57;81.50;102572.47;4985436;28;20046;-53
2021/12/18 02:05:33;;;;;;;13.77;4.38;;;;;;;6.59;81.06;102578.59;4984430;28;20050;-54
2021/12/18 02:08:00;;;;;;;12.02;4.82;;;;;;;6.59;80.95;102575.13;4988692;28;20042;-55
2021/12/18 02:10:30;;;;;;;13.18;4.90;;;;;;;6.57;81.76;102575.03;4985872;28;20046;-52
2021/12/18 02:13:08;;;;;;;10.70;4.25;;;;;;;6.58;80.62;102581.09;4985995;28;20097;-54
2021/12/18 02:21:14;;;;;;;8.63;3.70;;;;;;;6.61;80.22;102576.97;4982259;28;20096;-53
2021/12/18 02:23:41;;;;;;;10.43;4.50;;;;;;;6.62;81.04;102581.31;4987211;28;20592;-54
2021/12/18 02:26:08;;;;;;;12.10;4.07;;;;;;;6.62;81.87;102583.91;4985097;28;20101;-50
2021/12/18 02:28:35;;;;;;;9.90;3.92;;;;;;;6.61;81.52;102587.28;4985981;28;20050;-52
2021/12/18 02:31:03;;;;;;;13.35;4.63;;;;;;;6.61;81.88;102587.28;4982759;28;20504;-52
2021/12/18 02:33:29;;;;;;;7.95;3.70;;;;;;;6.64;79.97;102602.00;4988742;28;20054;-55
2021/12/18 02:35:58;;;;;;;7.15;3.03;;;;;;;6.63;81.25;102593.41;4983787;28;20058;-48
2021/12/18 02:38:44;;;;;;;7.15;2.95;;;;;;;6.61;81.10;102591.53;4986402;28;20054;-53
2021/12/18 02:41:26;;;;;;;5.78;3.25;;;;;;;6.59;80.55;102585.44;4990025;28;20556;-53
2021/12/18 02:43:54;;;;;;;7.55;3.83;;;;;;;6.57;81.77;102585.34;4982844;28;20520;-53
2021/12/18 02:46:21;;;;;;;7.45;3.80;;;;;;;6.58;80.85;102583.66;4986058;28;20054;-53
2021/12/18 02:48:50;;;;;;;6.28;2.88;;;;;;;6.59;80.69;102585.44;4983152;28;20092;-53
2021/12/18 02:51:18;;;;;;;8.00;3.38;;;;;;;6.56;81.87;102576.72;4984268;28;20050;-53
2021/12/18 02:53:49;;;;;;;7.38;3.30;;;;;;;6.58;80.75;102574.22;4983463;28;20051;-53
2021/12/18 02:56:19;;;;;;;6.93;2.22;;;;;;;6.54;81.19;102580.03;4988112;28;24219;-52
2021/12/18 02:58:47;;;;;;;6.68;3.03;;;;;;;6.54;80.92;102574.88;4982691;28;20047;-53
2021/12/18 03:01:18;;;;;;;9.65;4.72;;;;;;;6.55;80.76;102576.63;4985146;28;20050;-53
2021/12/18 03:03:46;;;;;;;8.43;3.15;;;;;;;6.53;82.38;102567.97;4984832;28;20506;-54
2021/12/18 03:06:35;;;;;;;10.55;4.22;;;;;;;6.53;80.79;102571.44;4986546;28;20077;-53
2021/12/18 03:23:29;;;;;;;7.10;3.20;;;;;;;6.49;81.17;102560.88;4984398;28;20109;-52
2021/12/18 03:25:44;;;;;;;4.97;2.40;;;;;;;6.52;82.15;102568.75;4982554;28;20873;-53
2021/12/18 03:28:13;;;;;;;5.82;3.03;;;;;;;6.52;81.07;102567.06;4984785;28;20042;-52
2021/12/18 03:30:39;;;;;;;6.15;2.67;;;;;;;6.53;82.11;102562.81;4983321;28;20502;-55
2021/12/18 03:33:06;;;;;;;5.20;2.53;;;;;;;6.51;81.09;102564.41;4987781;28;20058;-55
2021/12/18 03:35:33;;;;;;;8.35;4.18;;;;;;;6.53;80.88;102562.81;4984317;28;20077;-54
2021/12/18 03:38:00;;;;;;;9.63;2.92;;;;;;;6.55;81.18;102564.66;4989730;28;20521;-55
2021/12/18 03:40:27;;;;;;;7.88;3.53;;;;;;;6.55;81.47;102563.75;4986870;28;20105;-54
2021/12/18 03:42:54;;;;;;;9.70;3.47;;;;;;;6.55;80.73;102563.75;4984894;28;20116;-52
2021/12/18 03:45:22;;;;;;;7.93;3.03;;;;;;;6.57;80.62;102569.91;4984860;28;20097;-49
2021/12/18 03:47:50;;;;;;;10.80;4.20;;;;;;;6.58;81.56;102571.66;4982641;28;20050;-52
2021/12/18 03:50:17;;;;;;;9.60;3.95;;;;;;;6.60;80.98;102569.16;4983036;28;20346;-53
2021/12/18 03:52:44;;;;;;;12.23;4.57;;;;;;;6.58;81.45;102563.94;4983077;28;20117;-52
2021/12/18 03:55:11;;;;;;;10.13;3.92;;;;;;;6.55;80.45;102564.66;4982558;28;20050;-53
2021/12/18 03:57:38;;;;;;;12.45;4.20;;;;;;;6.54;81.63;102560.31;4990532;28;20046;-51
2021/12/18 04:00:08;;;;;;;9.23;4.03;;;;;;;6.54;80.34;102556.84;4989082;28;20046;-54
2021/12/18 04:02:34;;;;;;;9.05;4.28;;;;;;;6.56;80.37;102560.41;4988924;28;20050;-52
2021/12/18 04:05:01;;;;;;;11.25;4.78;;;;;;;6.57;81.05;102554.44;4989613;28;20731;-51
2021/12/18 04:07:28;;;;;;;10.25;3.88;;;;;;;6.59;80.55;102563.16;4982443;28;20054;-53
2021/12/18 04:09:55;;;;;;;8.82;3.10;;;;;;;6.60;80.59;102564.91;4990086;28;20050;-52
2021/12/18 04:12:22;;;;;;;9.52;3.92;;;;;;;6.59;80.92;102563.16;4985514;28;20050;-55
2021/12/18 04:14:48;;;;;;;7.07;3.22;;;;;;;6.60;80.77;102564.91;4986176;28;20541;-54
2021/12/18 04:17:15;;;;;;;7.13;2.95;;;;;;;6.59;81.04;102569.97;4988910;28;20054;-54
2021/12/18 04:19:42;;;;;;;6.90;3.28;;;;;;;6.57;80.88;102569.91;4988702;28;20050;-52
2021/12/18 04:22:08;;;;;;;8.95;3.25;;;;;;;6.56;81.14;102563.84;4986029;28;20073;-55
2021/12/18 04:24:35;;;;;;;3.60;1.95;;;;;;;6.52;81.12;102555.91;4986813;28;20047;-54
2021/12/18 04:27:02;;;;;;;8.38;3.42;;;;;;;6.50;81.75;102562.63;4988358;28;20323;-53
2021/12/18 04:29:28;;;;;;;6.50;2.95;;;;;;;6.49;80.57;102555.72;4985469;28;20133;-53
2021/12/18 04:31:56;;;;;;;9.15;3.80;;;;;;;6.51;80.62;102559.25;4987401;28;20121;-51
2021/12/18 04:34:23;;;;;;;8.13;3.67;;;;;;;6.54;80.87;102559.41;4988978;28;20047;-53
2021/12/18 04:36:49;;;;;;;9.98;3.30;;;;;;;6.54;80.88;102549.13;4988439;28;20057;-54
2021/12/18 04:39:16;;;;;;;8.65;3.67;;;;;;;6.51;80.12;102548.94;4990240;28;20832;-54
2021/12/18 04:41:49;;;;;;;6.05;2.60;;;;;;;6.52;81.67;102548.16;4985373;28;20128;-55
2021/12/18 04:44:17;;;;;;;7.10;3.17;;;;;;;6.49;81.26;102550.56;4989468;28;20050;-54
2021/12/18 04:46:44;;;;;;;3.42;2.30;;;;;;;6.45;81.15;102554.66;4985552;28;20534;-53
2021/12/18 04:49:11;;;;;;;5.38;2.22;;;;;;;6.39;80.45;102560.34;4988133;28;20047;-51
2021/12/18 04:51:37;;;;;;;5.63;3.10;;;;;;;6.40;80.52;102557.00;4989934;28;20065;-52
2021/12/18 04:54:04;;;;;;;6.68;3.08;;;;;;;6.43;81.75;102557.13;4985502;28;20062;-50
2021/12/18 04:56:31;;;;;;;6.35;2.75;;;;;;;6.41;81.79;102558.75;4988011;28;20588;-54
2021/12/18 04:58:58;;;;;;;6.00;3.10;;;;;;;6.46;80.19;102552.97;4989861;28;20050;-51
2021/12/18 05:01:24;;;;;;;7.55;3.45;;;;;;;6.43;81.29;102567.44;4986542;28;20112;-53
2021/12/18 05:03:51;;;;;;;8.77;3.88;;;;;;;6.47;81.25;102558.22;4987383;28;20050;-50
2021/12/18 05:06:18;;;;;;;8.68;3.47;;;;;;;6.47;81.14;102557.31;4986895;28;21171;-53
2021/12/18 05:08:44;;;;;;;5.88;2.70;;;;;;;6.47;81.89;102557.31;4984359;28;20506;-55
2021/12/18 05:11:11;;;;;;;5.68;3.00;;;;;;;6.46;81.89;102560.69;4985974;28;20054;-55
2021/12/18 05:13:38;;;;;;;5.70;2.78;;;;;;;6.47;80.56;102562.47;4988313;28;20368;-56
2021/12/18 05:16:04;;;;;;;6.28;2.42;;;;;;;6.45;80.24;102556.34;4986170;28;20388;-53
2021/12/18 05:18:31;;;;;;;6.53;3.50;;;;;;;6.46;80.96;102558.13;4982926;28;20105;-55
2021/12/18 05:20:58;;;;;;;6.93;3.28;;;;;;;6.48;81.09;102566.81;4985161;28;20042;-52
2021/12/18 05:23:24;;;;;;;5.43;2.25;;;;;;;6.45;80.87;102564.06;4988498;28;20062;-52
2021/12/18 05:25:51;;;;;;;4.25;2.65;;;;;;;6.41;80.31;102561.31;4986808;28;20054;-53
2021/12/18 05:28:17;;;;;;;6.55;2.30;;;;;;;6.40;81.84;102558.66;4986736;28;20054;-50
2021/12/18 05:30:44;;;;;;;4.35;2.30;;;;;;;6.36;81.89;102564.44;4986572;28;20050;-52
2021/12/18 05:33:11;;;;;;;4.10;1.75;;;;;;;6.33;80.28;102564.28;4983752;28;20977;-55
2021/12/18 05:35:39;;;;;;;6.30;2.53;;;;;;;6.32;81.16;102560.84;4984276;28;20049;-54
2021/12/18 05:38:06;;;;;;;5.10;2.70;;;;;;;6.30;81.69;102554.69;4988970;28;21182;-53
2021/12/18 05:40:34;;;;;;;5.00;2.53;;;;;;;6.32;81.83;102555.69;4982442;28;20101;-54
2021/12/18 05:43:01;;;;;;;7.03;1.90;;;;;;;6.34;81.95;102563.47;4984266;28;20445;-53
2021/12/18 05:45:28;;;;;;;4.97;2.60;;;;;;;6.35;80.45;102560.13;4985990;28;20125;-52
2021/12/18 05:47:55;;;;;;;5.32;2.60;;;;;;;6.35;80.44;102563.56;4987343;28;20103;-52
2021/12/18 05:50:24;;;;;;;6.25;2.97;;;;;;;6.35;81.93;102565.25;5001492;28;20081;-53
2021/12/18 05:52:58;;;;;;;5.10;2.38;;;;;;;6.33;80.72;102562.59;4986280;28;20536;-52
2021/12/18 05:55:26;;;;;;;4.72;2.15;;;;;;;6.31;80.58;102566.75;4983921;28;20058;-49
2021/12/18 05:57:53;;;;;;;4.80;2.55;;;;;;;6.36;80.39;102570.50;4987171;28;20073;-54
2021/12/18 06:00:20;;;;;;;7.03;2.65;;;;;;;6.33;82.05;102578.03;4985036;28;20541;-55
2021/12/18 06:02:48;;;;;;;3.35;1.20;;;;;;;6.32;82.18;102576.28;4987318;28;20462;-53
2021/12/18 06:05:15;;;;;;;3.53;1.70;;;;;;;6.33;80.37;102575.47;4986279;28;20042;-55
2021/12/18 06:07:54;;;;;;;3.50;2.08;;;;;;;6.31;81.97;102566.75;4987606;28;20112;-53
2021/12/18 06:10:23;;;;;;;4.15;2.47;;;;;;;6.31;81.73;102561.59;4983507;28;20058;-54
2021/12/18 06:12:50;;;;;;;5.60;2.42;;;;;;;6.32;80.68;102563.41;4987744;28;20046;-51
2021/12/18 06:15:17;;;;;;;5.88;2.15;;;;;;;6.35;80.96;102568.69;4987079;28;20056;-55
2021/12/18 06:17:44;;;;;;;5.03;2.15;;;;;;;6.36;82.12;102567.03;4980979;28;20054;-54
2021/12/18 06:20:11;;;;;;;3.45;2.10;;;;;;;6.34;81.73;102576.34;4988238;28;20034;-54
2021/12/18 06:22:38;;;;;;;3.88;2.25;;;;;;;6.32;81.74;102568.56;4984562;28;20097;-50
2021/12/18 06:25:05;;;;;;;5.60;2.35;;;;;;;6.31;81.60;102571.91;4985599;28;20062;-54
2021/12/18 06:27:32;;;;;;;2.80;1.95;;;;;;;6.24;80.95;102570.69;4983362;28;20132;-52
2021/12/18 06:30:01;;;;;;;3.42;1.55;;;;;;;6.16;81.30;102562.56;4988909;28;20093;-51
2021/12/18 06:32:28;;;;;;;5.38;2.25;;;;;;;6.17;80.75;102568.56;4983479;28;20050;-54
2021/12/18 06:34:55;;;;;;;5.35;2.25;;;;;;;6.19;82.05;102572.13;4984485;28;20058;-53
2021/12/18 06:37:21;;;;;;;4.25;1.80;;;;;;;6.21;80.94;102569.66;4985290;28;20057;-51
2021/12/18 06:39:48;;;;;;;3.92;1.85;;;;;;;6.18;81.42;102570.34;4985899;28;20046;-52
2021/12/18 06:42:34;;;;;;;3.78;2.03;;;;;;;6.15;81.28;102565.03;4986336;28;20133;-52
2021/12/18 06:45:02;;;;;;;4.55;2.15;;;;;;;6.16;81.40;102567.69;4986163;28;20085;-51
2021/12/18 06:47:29;;;;;;;3.17;2.13;;;;;;;6.15;81.62;102576.19;4988762;28;20109;-54
2021/12/18 06:49:55;;;;;;;5.03;2.33;;;;;;;6.16;81.32;102579.66;4986405;28;20042;-56
2021/12/18 06:52:22;;;;;;;5.70;2.13;;;;;;;6.17;82.40;102569.47;4985794;28;20050;-54
2021/12/18 06:54:49;;;;;;;3.08;1.90;;;;;;;6.19;81.54;102581.53;4986903;28;20105;-53
2021/12/18 06:57:15;;;;;;;5.22;1.60;;;;;;;6.23;80.54;102583.47;4984603;28;20449;-54
2021/12/18 06:59:42;;;;;;;3.60;2.08;;;;;;;6.22;82.02;102577.44;4986587;28;20077;-56
2021/12/18 07:02:08;;;;;;;3.05;1.50;;;;;;;6.24;81.71;102570.69;4984435;28;20124;-55
2021/12/18 07:04:37;;;;;;;3.20;1.63;;;;;;;6.26;81.12;102573.34;4981313;28;20073;-54
2021/12/18 07:07:04;;;;;;;4.60;1.98;;;;;;;6.25;80.81;102574.16;4980422;28;20054;-51
2021/12/18 07:09:30;;;;;;;3.80;2.05;;;;;;;6.25;81.51;102563.88;4982815;28;20058;-56
2021/12/18 07:11:57;;;;;;;4.20;1.92;;;;;;;6.27;80.83;102564.81;4979498;28;20104;-52
2021/12/18 07:14:27;;;;;;;4.07;1.88;;;;;;;6.27;80.78;102559.66;4982050;28;20150;-53
2021/12/18 07:16:53;;;;;;;5.60;2.25;;;;;;;6.29;80.69;102563.22;4981857;28;20054;-51
2021/12/18 07:19:20;;;;;;;2.95;1.80;;;;;;;6.30;81.59;102565.00;4980838;28;20042;-54
2021/12/18 07:21:47;;;;;;;3.08;2.25;;;;;;;6.24;80.57;102568.13;4980618;28;20046;-51
2021/12/18 07:24:13;;;;;;;3.85;2.33;;;;;;;6.17;81.80;102566.88;4984299;28;20062;-55
2021/12/18 07:26:40;;;;;;;3.58;1.75;;;;;;;6.20;82.36;102567.84;4982776;28;20054;-52
2021/12/18 07:29:06;;;;;;;4.88;2.13;;;;;;;6.23;81.30;102568.03;4983896;28;20046;-55
2021/12/18 07:31:33;;;;;;;3.55;1.17;;;;;;;6.24;81.24;102572.38;4983705;28;20410;-52
2021/12/18 07:33:59;;;;;;;3.95;2.20;;;;;;;6.24;82.06;102569.78;4987697;28;20047;-54
2021/12/18 07:36:26;;;;;;;4.20;2.00;;;;;;;6.25;82.04;102576.72;4983166;28;20073;-54
2021/12/18 07:38:53;;;;;;;4.63;2.38;;;;;;;6.27;81.35;102567.38;4984461;28;20173;-52
2021/12/18 07:41:19;;;;;;;3.13;1.77;;;;;;;6.29;80.69;102573.53;4985023;28;20058;-55
2021/12/18 07:43:46;;;;;;;4.57;2.00;;;;;;;6.28;81.36;102571.72;4982095;28;20104;-54
2021/12/18 07:46:13;;;;;;;4.22;1.50;;;;;;;6.28;81.46;102576.88;4983258;28;20054;-55
2021/12/18 07:48:39;;;;;;;3.28;2.33;;;;;;;6.28;81.14;102576.88;4983084;28;20054;-53
2021/12/18 07:51:06;;;;;;;2.65;1.67;;;;;;;6.24;81.29;102574.94;4982733;28;20058;-56
2021/12/18 07:53:33;;;;;;;2.65;1.73;;;;;;;6.22;81.11;102576.56;4984388;28;20062;-53
2021/12/18 07:56:01;;;;;;;4.85;1.92;;;;;;;6.24;81.91;102585.22;4984216;28;20042;-55
2021/12/18 07:58:28;;;;;;;3.40;1.65;;;;;;;6.20;80.56;102585.84;4982912;28;20069;-54
2021/12/18 08:00:54;;;;;;;3.45;2.08;;;;;;;6.23;80.36;102588.63;4983819;28;20059;-57
2021/12/18 08:03:21;;;;;;;4.38;2.15;;;;;;;6.19;80.78;102584.09;4982469;28;20050;-55
2021/12/18 08:05:48;;;;;;;4.28;2.08;;;;;;;6.20;81.47;102580.72;4982076;28;20068;-51
2021/12/18 08:08:15;;;;;;;3.78;2.28;;;;;;;6.22;81.43;102586.84;4982903;28;20105;-53
2021/12/18 08:10:41;;;;;;;5.03;2.28;;;;;;;6.24;81.47;102580.97;4984257;28;20113;-53
2021/12/18 08:13:08;;;;;;;5.25;2.30;;;;;;;6.26;80.83;102588.78;4988956;28;20059;-54
2021/12/18 08:15:35;;;;;;;5.70;2.15;;;;;;;6.25;80.42;102584.47;4986086;28;20097;-52
2021/12/18 08:18:06;;;;;;;8.00;3.13;;;;;;;6.28;81.15;102592.31;4988288;28;20101;-54
2021/12/18 08:20:34;;;;;;;5.00;2.38;;;;;;;6.27;80.44;102591.47;4986732;28;20054;-54
2021/12/18 08:23:01;;;;;;;4.20;2.50;;;;;;;6.29;81.87;102592.41;4992295;28;20097;-56
2021/12/18 08:25:29;;;;;;;4.55;2.53;;;;;;;6.30;80.42;102590.75;4986029;28;20062;-53
2021/12/18 08:27:59;;;;;;;4.60;2.75;;;;;;;6.33;81.83;102595.16;4982567;28;20046;-55
2021/12/18 08:30:28;;;;;;;4.72;2.50;;;;;;;6.31;81.25;102592.50;4984885;28;20109;-54
2021/12/18 08:32:56;;;;;;;3.75;1.80;;;;;;;6.30;81.27;102586.50;4986389;28;20054;-54
2021/12/18 08:35:25;;;;;;;3.50;1.92;;;;;;;6.29;79.84;102587.25;4980102;28;20046;-57
2021/12/18 08:37:52;;;;;;;3.65;2.13;;;;;;;6.26;80.95;102589.69;4987120;28;20108;-54
2021/12/18 08:40:19;;;;;;;5.07;1.77;;;;;;;6.26;80.92;102593.94;4984618;28;20046;-55
2021/12/18 08:42:46;;;;;;;3.08;1.25;;;;;;;6.26;80.42;102588.78;4986816;28;20074;-54
2021/12/18 08:45:13;;;;;;;3.65;1.83;;;;;;;6.23;80.61;102588.63;4985248;28;20049;-56
2021/12/18 08:47:40;;;;;;;2.70;1.60;;;;;;;6.26;81.35;102593.94;4978865;28;20931;-54
2021/12/18 08:50:10;;;;;;;4.07;1.65;;;;;;;6.27;81.29;102599.19;4988968;28;20042;-53
2021/12/18 08:52:37;;;;;;;3.10;1.67;;;;;;;6.24;81.13;102596.44;4988135;28;20050;-53
2021/12/18 08:55:04;;;;;;;2.35;1.80;;;;;;;6.24;80.55;102600.69;4988929;28;20050;-52
2021/12/18 08:57:32;;;;;;;3.50;1.88;;;;;;;6.26;81.08;102606.81;4987125;28;20092;-54
2021/12/18 08:59:58;;;;;;;4.85;2.10;;;;;;;6.23;81.31;102604.06;4985743;28;20046;-54
2021/12/18 09:02:25;;;;;;;4.45;2.33;;;;;;;6.24;81.55;102604.16;4985374;28;20113;-54
2021/12/18 09:04:52;;;;;;;10.07;2.05;;;;;;;6.26;79.95;102609.38;4990650;28;20062;-56
2021/12/18 09:07:18;;;;;;;9.70;2.28;;;;;;;6.27;80.62;102606.00;4985326;28;20086;-53
2021/12/18 09:09:45;;;;;;;7.95;2.42;;;;;;;6.28;80.17;102612.91;4987231;28;20050;-56
2021/12/18 09:12:12;;;;;;;3.53;1.70;;;;;;;6.25;80.18;102607.63;4988224;28;20659;-55
2021/12/18 09:14:39;;;;;;;4.45;2.90;;;;;;;6.27;80.43;102600.84;4984964;28;20047;-53
2021/12/18 09:17:07;;;;;;;4.00;1.88;;;;;;;6.25;80.31;102599.91;4986124;28;20058;-56
2021/12/18 09:19:33;;;;;;;3.00;1.58;;;;;;;6.25;80.57;102602.47;4986298;28;20038;-56
2021/12/18 09:22:01;;;;;;;4.15;0.70;;;;;;;6.24;80.56;102600.69;4986497;28;20613;-54
2021/12/18 09:24:27;;;;;;;2.95;2.03;;;;;;;6.23;80.49;102593.75;4985438;28;20050;-56
2021/12/18 09:26:54;;;;;;;3.72;2.13;;;;;;;6.21;80.45;102595.38;4984155;28;20058;-54
2021/12/18 09:29:21;;;;;;;3.67;1.83;;;;;;;6.24;80.39;102592.94;4986218;28;20058;-55
2021/12/18 09:31:47;;;;;;;5.43;2.33;;;;;;;6.24;81.38;102595.53;4984252;28;20062;-55
2021/12/18 09:34:14;;;;;;;3.88;2.08;;;;;;;6.26;81.13;102599.09;4991317;28;20058;-51
2021/12/18 09:36:41;;;;;;;2.42;1.77;;;;;;;6.26;81.01;102601.66;4985394;28;20053;-53
2021/12/18 09:39:08;;;;;;;3.33;1.90;;;;;;;6.24;81.17;102604.16;4985224;28;20805;-54
2021/12/18 09:41:36;;;;;;;1.70;1.20;;;;;;;6.23;80.95;102602.38;4984746;28;20089;-54
2021/12/18 09:44:03;;;;;;;2.95;1.90;;;;;;;6.20;79.62;102611.59;4991660;28;20046;-54
2021/12/18 09:46:31;;;;;;;1.70;0.90;;;;;;;6.21;81.13;102610.81;4989021;28;20649;-51
2021/12/18 09:48:58;;;;;;;3.08;1.83;;;;;;;6.22;80.50;102612.59;4985240;28;20097;-55
2021/12/18 09:51:27;;;;;;;3.17;2.33;;;;;;;6.19;80.35;102608.16;4986478;28;20434;-54
2021/12/18 09:53:56;;;;;;;2.13;1.05;;;;;;;6.22;80.63;102610.91;4988836;28;20441;-55
2021/12/18 09:56:25;;;;;;;2.30;2.10;;;;;;;6.19;80.57;102602.09;4978862;28;20047;-53
2021/12/18 09:58:52;;;;;;;2.78;1.92;;;;;;;6.16;80.04;102603.72;4984626;28;20474;-55
2021/12/18 10:01:19;;;;;;;3.17;1.00;;;;;;;6.14;80.50;102600.16;4985153;28;20454;-54
2021/12/18 10:03:49;;;;;;;2.53;1.48;;;;;;;6.13;81.04;102603.56;4978932;28;20478;-56
2021/12/18 10:06:43;;;;;;;2.88;1.67;;;;;;;6.13;80.23;102602.66;4980790;28;20053;-53
2021/12/18 10:09:28;;;;;;;1.73;1.25;;;;;;;6.11;81.55;102605.13;4982104;28;20046;-56
2021/12/18 10:11:58;;;;;;;3.03;2.38;;;;;;;6.16;80.07;102608.88;4982264;28;20117;-53
2021/12/18 10:14:36;;;;;;;2.30;2.10;;;;;;;6.16;80.74;102601.16;4981771;28;20046;-56
2021/12/18 10:17:05;;;;;;;2.53;1.00;;;;;;;6.20;80.92;102606.44;4983068;28;20129;-52
2021/12/18 10:19:35;;;;;;;3.50;1.17;;;;;;;6.21;81.58;102613.41;4979606;28;20105;-56
2021/12/18 10:22:05;;;;;;;1.50;1.33;;;;;;;6.23;81.43;102614.34;4984906;28;20050;-52
2021/12/18 10:24:33;;;;;;;;;;;;;;;6.17;81.63;102610.63;4977673;28;20595;-53
2021/12/18 10:27:01;;;;;;;3.47;1.92;;;;;;;6.24;80.34;102610.97;4981052;28;19971;-56
2021/12/18 10:29:35;;;;;;;2.60;1.35;;;;;;;6.26;81.06;102615.44;4981803;28;20050;-53
2021/12/18 10:32:09;;;;;;;2.88;1.80;;;;;;;6.25;79.85;102607.63;4981346;28;20093;-57
2021/12/18 10:34:38;;;;;;;2.92;1.52;;;;;;;6.30;79.86;102612.22;4985948;28;20382;-53
2021/12/18 10:37:17;;;;;;;3.40;3.10;;;;;;;6.28;80.27;102612.91;4982800;28;20054;-53
2021/12/18 10:40:06;;;;;;;2.67;1.52;;;;;;;6.29;80.08;102609.56;4986879;28;20081;-55
2021/12/18 10:42:40;;;;;;;3.63;2.17;;;;;;;6.34;80.75;102610.69;4983133;28;20462;-56
2021/12/18 10:45:25;;;;;;;4.03;2.58;;;;;;;6.36;79.87;102616.84;4981691;28;20050;-54
2021/12/18 10:48:00;;;;;;;3.63;2.40;;;;;;;6.38;81.82;102604.91;4984628;28;20050;-53
2021/12/18 10:50:34;;;;;;;4.32;2.20;;;;;;;6.35;81.42;102609.03;4980294;28;20128;-54
2021/12/18 10:53:12;;;;;;;3.13;1.85;;;;;;;6.38;81.43;102597.19;4983515;28;20050;-53
2021/12/18 10:55:53;;;;;;;4.10;1.98;;;;;;;6.39;80.64;102601.53;4980099;28;20112;-50
2021/12/18 10:58:27;;;;;;;3.08;2.03;;;;;;;6.37;81.42;102605.72;4980998;28;20084;-52
2021/12/18 11:01:09;;;;;;;3.33;1.95;;;;;;;6.36;80.40;102593.66;4979710;28;20050;-53
2021/12/18 11:03:39;;;;;;;4.97;3.35;;;;;;;6.43;80.77;102593.19;4983326;28;20100;-54
2021/12/18 11:06:11;;;;;;;3.35;1.90;;;;;;;6.45;80.78;102592.41;4977949;28;20058;-54
2021/12/18 11:09:12;;;;;;;3.13;2.00;;;;;;;6.48;80.35;102587.44;4982026;28;20716;-52
2021/12/18 11:14:40;;;;;;;2.90;1.95;;;;;;;6.54;80.96;102588.63;4985256;28;20042;-52
2021/12/18 11:17:10;;;;;;;3.80;2.20;;;;;;;6.54;80.50;102588.63;4980967;28;20054;-51
2021/12/18 11:19:39;;;;;;;3.90;2.70;;;;;;;6.53;81.65;102583.41;4980222;28;20479;-52
2021/12/18 11:22:09;;;;;;;5.45;2.42;;;;;;;6.50;80.27;102580.66;4978508;28;20045;-56
2021/12/18 11:24:41;;;;;;;3.70;2.45;;;;;;;6.48;80.23;102585.72;4978947;28;20062;-50
2021/12/18 11:27:17;;;;;;;3.45;1.92;;;;;;;6.42;80.58;102583.69;4981454;28;20105;-50
2021/12/18 11:30:07;;;;;;;3.65;1.67;;;;;;;6.37;82.14;102577.41;4983446;28;20653;-54
2021/12/18 11:32:39;;;;;;;3.03;2.25;;;;;;;6.35;82.22;102573.84;4981296;28;20066;-54
2021/12/18 11:35:12;;;;;;;5.00;3.00;;;;;;;6.34;80.70;102569.50;4978889;28;20542;-51
2021/12/18 11:37:43;;;;;;;7.78;2.67;;;;;;;6.35;81.30;102573.84;4980193;28;20557;-54
2021/12/18 11:40:14;;;;;;;5.30;2.10;;;;;;;6.34;81.37;102574.66;4978697;28;20905;-53
2021/12/18 11:42:42;;;;;;;6.20;3.55;;;;;;;6.35;81.96;102573.84;4979044;28;20081;-51
2021/12/18 11:45:10;;;;;;;4.80;3.13;;;;;;;6.39;81.71;102573.22;4980881;28;20050;-56
2021/12/18 11:47:38;;;;;;;5.60;3.10;;;;;;;6.41;80.98;102568.16;4981812;28;20049;-55
2021/12/18 11:50:22;;;;;;;6.07;3.03;;;;;;;6.41;81.27;102568.16;4985188;28;20081;-57
2021/12/18 11:53:08;;;;;;;4.97;2.67;;;;;;;6.39;81.70;102568.06;4987622;28;20104;-53
2021/12/18 11:55:53;;;;;;;6.13;3.00;;;;;;;6.42;81.65;102560.53;4984434;28;20046;-51
2021/12/18 11:58:32;;;;;;;7.05;3.05;;;;;;;6.42;80.96;102565.66;4981489;28;20121;-55
2021/12/18 12:01:11;;;;;;;5.90;3.17;;;;;;;6.48;81.04;102559.97;4980833;28;20057;-51
2021/12/18 12:03:44;;;;;;;6.03;2.50;;;;;;;6.54;80.67;102554.28;4980987;28;20101;-52
2021/12/18 12:06:28;;;;;;;5.47;2.33;;;;;;;6.56;81.50;102562.97;4986337;28;20675;-53
2021/12/18 12:09:38;;;;;;;5.75;3.00;;;;;;;6.59;81.66;102550.28;4985337;28;20070;-52
2021/12/18 12:12:08;;;;;;;4.13;2.42;;;;;;;6.61;81.61;102548.66;4984187;28;20055;-54
2021/12/18 12:14:39;;;;;;;4.68;2.83;;;;;;;6.62;79.87;102555.56;4986334;28;20062;-54
2021/12/18 12:17:11;;;;;;;9.15;4.57;;;;;;;6.63;80.41;102556.47;4984983;28;20148;-51
2021/12/18 12:19:42;;;;;;;7.80;4.25;;;;;;;6.65;80.12;102554.84;4988033;28;20047;-54
2021/12/18 12:22:29;;;;;;;6.85;3.60;;;;;;;6.67;81.45;102556.72;4989577;28;20047;-55